Terminal Aerodrome Forecast
Issued by NWS

Home | Current Version | Previous Version | Text Only | Print | Product List | Glossary On
Versions: 1 2 3 4 5 6 7 8 9 10 11 12 13 14 15 16 17 18 19 20 21 22 23 24 25 26
000
FTUS46 KLOX 270617 CCA
TAFLGB
TAF COR
KLGB 270617Z 2706/2806 VRB03KT P6SM OVC020
     FM270800 VRB05KT P6SM OVC022
     FM271700 21008KT P6SM BKN025
     FM272300 29010KT P6SM SCT250
     FM280400 29008KT P6SM OVC015=

USA.gov is the U.S. government's official web portal to all federal, state and local government web resources and services.